Terminal Aerodrome Forecast
Issued by NWS

Home | Current Version | Previous Version | Text Only | Print | Product List | Glossary On
Versions: 1 2 3 4 5 6 7 8 9 10 11 12 13 14 15 16 17 18 19 20 21 22 23
030
FTUS43 KAPX 301302 AAA
TAFMBL
TAF AMD
KMBL 301302Z 3013/3112 18004KT P6SM SCT250
      TEMPO 3013/3014 1/4SM FG OVC001
     FM301500 24006KT P6SM BKN050 BKN200
     FM302000 24008KT P6SM VCSH SCT050 BKN150
     FM310300 35004KT P6SM VCSH SCT040 BKN100
     FM310600 03010KT P6SM SCT035 BKN080
     FM311000 02005KT P6SM FEW035 SCT200=

USA.gov is the U.S. government's official web portal to all federal, state and local government web resources and services.